Time;durP1;ratioP1;P1;durP2;ratioP2;P2;SDS_P1;SDS_P2;PMS_P1;PMS_P2;Temp;Humidity;BMP_temperature;BMP_pressure;BME280_temperature;BME280_humidity;BME280_pressure;Samples;Min_cycle;Max_cycle;Signal;HPM_P1;HPM_P2
2023/12/12 00:01:35;;;;;;;19.08;3.72;;;8.40;99.90;;;;;;4726462;30;20400;-48
2023/12/12 00:04:04;;;;;;;17.77;4.25;;;8.40;99.90;;;;;;4724906;30;20538;-48
2023/12/12 00:06:31;;;;;;;15.48;3.78;;;8.40;99.90;;;;;;4727738;30;20071;-56
2023/12/12 00:08:58;;;;;;;17.63;3.90;;;8.30;99.90;;;;;;4724972;30;20541;-54
2023/12/12 00:11:25;;;;;;;15.00;4.63;;;8.30;99.90;;;;;;4726563;30;20076;-49
2023/12/12 00:13:52;;;;;;;15.00;3.88;;;8.30;99.90;;;;;;4726745;30;20185;-52
2023/12/12 00:16:19;;;;;;;17.35;3.58;;;8.30;99.90;;;;;;4727866;30;20061;-56
2023/12/12 00:18:46;;;;;;;18.63;4.25;;;8.40;99.90;;;;;;4727881;30;20073;-55
2023/12/12 00:21:14;;;;;;;19.83;4.55;;;8.40;99.90;;;;;;4727833;30;20420;-50
2023/12/12 00:23:41;;;;;;;16.55;4.30;;;8.40;99.90;;;;;;4725446;30;20055;-52
2023/12/12 00:26:09;;;;;;;17.13;4.45;;;8.30;99.90;;;;;;4728666;30;20080;-52
2023/12/12 00:28:36;;;;;;;14.55;4.38;;;8.40;99.90;;;;;;4724918;30;20057;-56
2023/12/12 00:31:03;;;;;;;14.05;3.83;;;8.30;99.90;;;;;;4727528;30;20106;-55
2023/12/12 00:33:31;;;;;;;12.00;3.40;;;8.40;99.90;;;;;;4725686;30;20161;-53
2023/12/12 00:36:02;;;;;;;17.85;3.90;;;8.40;99.90;;;;;;4728554;30;20058;-53
2023/12/12 00:38:29;;;;;;;20.20;4.65;;;8.40;99.90;;;;;;4725477;30;20495;-58
2023/12/12 00:40:56;;;;;;;17.02;3.70;;;8.40;99.90;;;;;;4728589;30;20419;-56
2023/12/12 00:43:24;;;;;;;16.42;4.15;;;8.40;99.90;;;;;;4724821;30;20471;-56
2023/12/12 00:45:51;;;;;;;19.13;4.32;;;8.30;99.90;;;;;;4724189;30;20367;-53
2023/12/12 00:48:19;;;;;;;15.73;4.35;;;8.30;99.90;;;;;;4728260;30;20499;-55
2023/12/12 00:50:46;;;;;;;12.02;3.38;;;8.30;99.90;;;;;;4728069;30;20123;-55
2023/12/12 00:53:13;;;;;;;15.27;3.78;;;8.30;99.90;;;;;;4730360;30;20143;-54
2023/12/12 00:55:41;;;;;;;12.02;3.92;;;8.20;99.90;;;;;;4726610;30;20057;-54
2023/12/12 00:58:08;;;;;;;13.73;3.88;;;8.20;99.90;;;;;;4729202;30;20077;-54
2023/12/12 01:00:35;;;;;;;16.08;3.40;;;8.30;99.90;;;;;;4712652;30;20060;-52
2023/12/12 01:03:02;;;;;;;20.95;3.60;;;8.30;99.90;;;;;;4728185;30;20057;-50
2023/12/12 01:05:29;;;;;;;23.05;4.57;;;8.30;99.90;;;;;;4729557;30;20063;-52
2023/12/12 01:07:56;;;;;;;17.65;3.38;;;8.30;99.90;;;;;;4727698;30;20045;-50
2023/12/12 01:10:24;;;;;;;13.75;3.53;;;8.30;99.90;;;;;;4731145;30;20063;-55
2023/12/12 01:12:51;;;;;;;15.30;4.03;;;8.30;99.90;;;;;;4730407;30;20040;-55
2023/12/12 01:15:18;;;;;;;17.38;3.40;;;8.30;99.90;;;;;;4730045;30;20052;-52
2023/12/12 01:17:45;;;;;;;14.15;3.90;;;8.20;99.90;;;;;;4731540;30;20052;-52
2023/12/12 01:20:12;;;;;;;14.85;3.97;;;8.30;99.90;;;;;;4731056;30;20068;-52
2023/12/12 01:22:39;;;;;;;11.57;3.05;;;8.20;99.90;;;;;;4730248;30;20402;-50
2023/12/12 01:25:07;;;;;;;16.55;3.95;;;8.30;99.90;;;;;;4727653;30;20138;-51
2023/12/12 01:27:34;;;;;;;16.40;4.53;;;8.30;99.90;;;;;;4730589;30;20145;-53
2023/12/12 01:30:01;;;;;;;13.68;4.05;;;8.30;99.90;;;;;;4726686;30;20084;-52
2023/12/12 01:32:29;;;;;;;15.73;3.92;;;8.30;99.90;;;;;;4730239;30;20531;-54
2023/12/12 01:34:56;;;;;;;17.35;4.88;;;8.20;99.90;;;;;;4726564;30;20303;-49
2023/12/12 01:37:25;;;;;;;14.52;3.90;;;8.30;99.90;;;;;;4728761;30;20118;-54
2023/12/12 01:39:53;;;;;;;21.85;4.43;;;8.20;99.90;;;;;;4730490;30;20486;-54
2023/12/12 01:42:20;;;;;;;20.88;4.15;;;8.20;99.90;;;;;;4729789;30;20543;-51
2023/12/12 01:44:47;;;;;;;19.58;3.50;;;8.20;99.90;;;;;;4728315;30;20140;-52
2023/12/12 01:47:14;;;;;;;18.35;3.92;;;8.10;99.90;;;;;;4730515;30;20544;-48
2023/12/12 01:49:42;;;;;;;20.38;3.85;;;8.10;99.90;;;;;;4729882;30;20167;-51
2023/12/12 01:52:10;;;;;;;20.00;4.47;;;8.00;99.90;;;;;;4731506;30;20581;-53
2023/12/12 01:54:42;;;;;;;18.00;3.83;;;7.90;99.90;;;;;;4730215;30;20122;-51
2023/12/12 01:57:09;;;;;;;15.27;4.03;;;7.90;99.90;;;;;;4728194;30;20057;-55
2023/12/12 01:59:37;;;;;;;17.88;3.88;;;7.80;99.90;;;;;;4726382;30;20080;-52
2023/12/12 02:02:06;;;;;;;22.00;4.07;;;7.70;99.90;;;;;;4730077;30;20150;-54
2023/12/12 02:04:33;;;;;;;20.17;3.72;;;7.70;99.90;;;;;;4728208;30;20502;-54
2023/12/12 02:07:03;;;;;;;15.20;4.57;;;7.70;99.90;;;;;;4727275;30;20140;-53
2023/12/12 02:09:31;;;;;;;25.10;4.65;;;7.60;99.90;;;;;;4727014;30;20048;-52
2023/12/12 02:11:59;;;;;;;17.95;4.38;;;7.50;99.90;;;;;;4731298;30;20077;-56
2023/12/12 02:14:26;;;;;;;20.35;4.03;;;7.40;99.90;;;;;;4728708;30;20053;-51
2023/12/12 02:16:53;;;;;;;17.85;4.47;;;7.40;99.90;;;;;;4730594;30;20152;-54
2023/12/12 02:19:21;;;;;;;20.58;4.03;;;7.40;99.90;;;;;;4725143;30;20076;-54
2023/12/12 02:21:49;;;;;;;25.27;4.43;;;7.30;99.90;;;;;;4709161;30;20055;-53
2023/12/12 02:24:16;;;;;;;23.10;4.43;;;7.40;99.90;;;;;;4726877;30;20056;-55
2023/12/12 02:26:43;;;;;;;21.25;4.05;;;7.40;99.90;;;;;;4729651;30;20059;-53
2023/12/12 02:29:11;;;;;;;15.60;4.03;;;7.40;99.90;;;;;;4727486;30;20052;-49
2023/12/12 02:31:38;;;;;;;16.98;4.00;;;7.40;99.90;;;;;;4732500;30;20462;-52
2023/12/12 02:34:06;;;;;;;16.15;3.75;;;7.40;99.90;;;;;;4730034;30;20048;-55
2023/12/12 02:36:33;;;;;;;14.52;3.58;;;7.40;99.90;;;;;;4736575;30;20068;-55
2023/12/12 02:39:01;;;;;;;20.45;4.55;;;7.40;99.90;;;;;;4738381;30;20135;-52
2023/12/12 02:41:28;;;;;;;14.85;3.55;;;7.40;99.90;;;;;;4734646;30;20065;-52
2023/12/12 02:43:55;;;;;;;24.60;4.60;;;7.50;99.90;;;;;;4734873;30;20182;-52
2023/12/12 02:46:22;;;;;;;22.67;4.47;;;7.50;99.90;;;;;;4726416;30;20160;-53
2023/12/12 02:48:50;;;;;;;14.80;3.70;;;7.50;99.90;;;;;;4731103;30;20075;-56
2023/12/12 02:51:17;;;;;;;21.50;5.40;;;7.50;99.90;;;;;;4710098;30;20125;-54
2023/12/12 02:53:44;;;;;;;17.10;3.75;;;7.50;99.90;;;;;;4727623;30;20067;-55
2023/12/12 02:56:11;;;;;;;23.63;4.28;;;7.50;99.90;;;;;;4731910;30;20103;-57
2023/12/12 02:58:38;;;;;;;20.02;4.05;;;7.50;99.90;;;;;;4726254;30;20234;-52
2023/12/12 03:01:05;;;;;;;14.93;4.20;;;7.50;99.90;;;;;;4728548;30;20131;-57
2023/12/12 03:03:32;;;;;;;19.75;4.13;;;7.50;99.90;;;;;;4725753;30;20060;-55
2023/12/12 03:06:00;;;;;;;15.88;3.65;;;7.60;99.90;;;;;;4728941;30;20494;-55
2023/12/12 03:08:27;;;;;;;14.98;3.90;;;7.50;99.90;;;;;;4724960;30;20090;-54
2023/12/12 03:10:54;;;;;;;18.38;4.82;;;7.50;99.90;;;;;;4728395;30;20056;-55
2023/12/12 03:13:21;;;;;;;15.25;3.65;;;7.50;99.90;;;;;;4728847;30;20403;-55
2023/12/12 03:15:48;;;;;;;14.73;3.67;;;7.50;99.90;;;;;;4727324;30;20143;-58
2023/12/12 03:18:15;;;;;;;20.20;3.80;;;7.50;99.90;;;;;;4727642;30;20167;-53
2023/12/12 03:20:42;;;;;;;17.15;3.92;;;7.50;99.90;;;;;;4723766;30;20453;-53
2023/12/12 03:23:09;;;;;;;18.50;3.90;;;7.50;99.90;;;;;;4728704;30;20615;-52
2023/12/12 03:25:36;;;;;;;21.55;4.45;;;7.50;99.90;;;;;;4726206;30;20048;-53
2023/12/12 03:28:04;;;;;;;19.48;4.05;;;7.50;99.90;;;;;;4731306;30;20053;-50
2023/12/12 03:30:31;;;;;;;15.90;4.28;;;7.40;99.90;;;;;;4720083;30;20067;-51
2023/12/12 03:32:59;;;;;;;18.45;3.92;;;7.40;99.90;;;;;;4711660;30;20060;-55
2023/12/12 03:35:26;;;;;;;19.38;4.38;;;7.40;99.90;;;;;;4724252;30;20597;-55
2023/12/12 03:37:53;;;;;;;19.55;3.75;;;7.30;99.90;;;;;;4726057;30;20627;-50
2023/12/12 03:40:20;;;;;;;17.40;4.07;;;7.30;99.90;;;;;;4728237;30;20137;-54
2023/12/12 03:42:48;;;;;;;19.15;4.13;;;7.20;99.90;;;;;;4724666;30;20040;-51
2023/12/12 03:45:15;;;;;;;18.02;4.38;;;7.20;99.90;;;;;;4726980;30;20511;-56
2023/12/12 03:47:42;;;;;;;18.00;4.13;;;7.10;99.90;;;;;;4727262;30;20056;-55
2023/12/12 03:50:10;;;;;;;18.95;4.32;;;7.10;99.90;;;;;;4727995;30;20049;-52
2023/12/12 03:52:38;;;;;;;19.48;4.80;;;7.10;99.90;;;;;;4727171;30;20258;-57
2023/12/12 03:55:07;;;;;;;23.42;5.07;;;7.10;99.90;;;;;;4730024;30;20629;-53
2023/12/12 03:57:34;;;;;;;21.50;4.72;;;7.10;99.90;;;;;;4710695;30;20496;-51
2023/12/12 04:00:06;;;;;;;23.23;5.35;;;7.10;99.90;;;;;;4727848;30;20065;-52
2023/12/12 04:02:38;;;;;;;19.95;3.78;;;7.20;99.90;;;;;;4726013;30;20148;-56
2023/12/12 04:05:09;;;;;;;21.20;4.65;;;7.20;99.90;;;;;;4722502;30;20048;-54
2023/12/12 04:07:38;;;;;;;21.25;4.28;;;7.30;99.90;;;;;;4727255;30;20049;-54
2023/12/12 04:10:07;;;;;;;21.52;4.35;;;7.30;99.90;;;;;;4729711;30;20044;-52
2023/12/12 04:12:35;;;;;;;17.30;3.80;;;7.30;99.90;;;;;;4724122;30;20108;-53
2023/12/12 04:15:02;;;;;;;21.20;3.92;;;7.40;99.90;;;;;;4710587;30;20044;-54
2023/12/12 04:17:32;;;;;;;18.75;4.03;;;7.40;99.90;;;;;;4725451;30;20067;-54
2023/12/12 04:19:59;;;;;;;15.93;3.78;;;7.40;99.90;;;;;;4709866;30;20160;-56
2023/12/12 04:22:26;;;;;;;23.95;4.40;;;7.30;99.90;;;;;;4726772;30;20140;-55
2023/12/12 04:24:54;;;;;;;21.15;5.60;;;7.30;99.90;;;;;;4727850;30;20049;-53
2023/12/12 04:27:21;;;;;;;20.35;3.85;;;7.20;99.90;;;;;;4731163;30;20376;-56
2023/12/12 04:29:48;;;;;;;21.25;4.28;;;7.10;99.90;;;;;;4728198;30;20118;-53
2023/12/12 04:32:15;;;;;;;13.27;3.67;;;7.10;99.90;;;;;;4730379;30;20059;-58
2023/12/12 04:34:43;;;;;;;17.23;4.43;;;7.10;99.90;;;;;;4731861;30;20061;-54
2023/12/12 04:37:10;;;;;;;18.92;3.80;;;7.00;99.90;;;;;;4712090;30;20149;-58
2023/12/12 04:39:38;;;;;;;21.88;4.50;;;7.00;99.90;;;;;;4731110;30;20060;-53
2023/12/12 04:42:05;;;;;;;20.50;5.68;;;6.90;99.90;;;;;;4729282;30;20130;-53
2023/12/12 04:44:33;;;;;;;21.80;4.30;;;6.90;99.90;;;;;;4726136;30;20056;-56
2023/12/12 04:47:00;;;;;;;24.15;3.95;;;6.90;99.90;;;;;;4731156;30;20099;-54
2023/12/12 04:49:27;;;;;;;23.60;3.97;;;6.80;99.90;;;;;;4717570;30;20102;-53
2023/12/12 04:51:54;;;;;;;15.77;4.28;;;6.80;99.90;;;;;;4730658;30;20052;-51
2023/12/12 04:54:21;;;;;;;15.02;4.38;;;6.80;99.90;;;;;;4726734;30;20053;-55
2023/12/12 04:56:49;;;;;;;16.77;4.20;;;6.70;99.90;;;;;;4729549;30;20052;-53
2023/12/12 04:59:16;;;;;;;19.60;4.90;;;6.70;99.90;;;;;;4728711;30;20057;-52
2023/12/12 05:01:43;;;;;;;24.48;4.53;;;6.70;99.90;;;;;;4729009;30;20053;-53
2023/12/12 05:04:11;;;;;;;20.83;4.97;;;6.70;99.90;;;;;;4726636;30;20527;-49
2023/12/12 05:06:38;;;;;;;25.05;4.45;;;6.60;99.90;;;;;;4730515;30;20045;-51
2023/12/12 05:09:05;;;;;;;18.23;3.90;;;6.60;99.90;;;;;;4709437;30;20098;-53
2023/12/12 05:11:32;;;;;;;15.20;4.30;;;6.60;99.90;;;;;;4732305;30;20099;-50
2023/12/12 05:13:59;;;;;;;25.15;5.35;;;6.70;99.90;;;;;;4729592;30;20059;-53
2023/12/12 05:16:27;;;;;;;23.48;5.47;;;6.70;99.90;;;;;;4728578;30;20059;-51
2023/12/12 05:18:59;;;;;;;18.58;4.53;;;6.70;99.90;;;;;;4710881;30;20067;-55
2023/12/12 05:21:26;;;;;;;23.20;4.60;;;6.80;99.90;;;;;;4726517;30;20048;-54
2023/12/12 05:23:54;;;;;;;18.25;4.63;;;6.80;99.90;;;;;;4727042;30;20155;-58
2023/12/12 05:26:21;;;;;;;14.35;4.57;;;6.80;99.90;;;;;;4730528;30;20138;-54
2023/12/12 05:28:48;;;;;;;15.98;4.03;;;7.00;99.90;;;;;;4726938;30;20127;-53
2023/12/12 05:31:16;;;;;;;21.55;4.25;;;6.90;99.90;;;;;;4729438;30;20117;-52
2023/12/12 05:33:43;;;;;;;20.50;5.00;;;7.00;99.90;;;;;;4728406;30;20063;-50
2023/12/12 05:36:10;;;;;;;14.80;4.50;;;7.00;99.90;;;;;;4727038;30;20060;-50
2023/12/12 05:38:37;;;;;;;20.70;4.60;;;7.10;99.90;;;;;;4726454;30;20060;-55
2023/12/12 05:41:06;;;;;;;15.85;3.92;;;7.10;99.90;;;;;;4727324;30;20570;-52
2023/12/12 05:43:34;;;;;;;20.98;5.00;;;7.10;99.90;;;;;;4725830;30;20049;-56
2023/12/12 05:46:02;;;;;;;19.58;4.53;;;7.10;99.90;;;;;;4724036;30;20044;-56
2023/12/12 05:48:30;;;;;;;18.30;4.45;;;7.10;99.90;;;;;;4729713;30;20227;-51
2023/12/12 05:50:57;;;;;;;16.40;4.40;;;7.10;99.90;;;;;;4724845;30;20118;-51
2023/12/12 05:53:26;;;;;;;19.02;3.97;;;7.10;99.90;;;;;;4728629;30;20057;-53
2023/12/12 05:55:55;;;;;;;16.48;4.53;;;7.10;99.90;;;;;;4723235;30;20062;-56
2023/12/12 05:58:23;;;;;;;23.10;5.20;;;7.10;99.90;;;;;;4727614;30;20084;-53
2023/12/12 06:00:51;;;;;;;23.40;5.15;;;7.10;99.90;;;;;;4727656;30;20056;-54
2023/12/12 06:03:18;;;;;;;17.75;4.15;;;7.20;99.90;;;;;;4726746;30;20110;-51
2023/12/12 06:05:45;;;;;;;17.73;5.10;;;7.20;99.90;;;;;;4711314;30;20057;-48
2023/12/12 06:08:12;;;;;;;20.60;5.72;;;7.30;99.90;;;;;;4730308;30;20052;-57
2023/12/12 06:10:39;;;;;;;16.63;4.75;;;7.30;99.90;;;;;;4728979;30;20135;-50
2023/12/12 06:13:08;;;;;;;20.23;5.45;;;7.30;99.90;;;;;;4728671;30;20052;-55
2023/12/12 06:15:35;;;;;;;23.67;5.07;;;7.40;99.90;;;;;;4713303;30;20041;-56
2023/12/12 06:18:02;;;;;;;24.48;4.95;;;7.40;99.90;;;;;;4730874;30;20130;-50
2023/12/12 06:20:32;;;;;;;21.63;5.72;;;7.30;99.90;;;;;;4726759;30;20399;-51
2023/12/12 06:22:59;;;;;;;27.65;5.75;;;7.30;99.90;;;;;;4729181;30;20131;-55
2023/12/12 06:25:26;;;;;;;17.92;5.15;;;7.30;99.90;;;;;;4727005;30;20520;-52
2023/12/12 06:27:53;;;;;;;18.38;4.60;;;7.40;99.90;;;;;;4726723;30;20056;-57
2023/12/12 06:30:20;;;;;;;16.65;4.38;;;7.30;99.90;;;;;;4726633;30;20043;-50
2023/12/12 06:32:49;;;;;;;18.88;4.95;;;7.30;99.90;;;;;;4726566;30;20033;-57
2023/12/12 06:35:17;;;;;;;17.73;5.38;;;7.30;99.90;;;;;;4727315;30;20071;-54
2023/12/12 06:37:44;;;;;;;20.38;4.50;;;7.40;99.90;;;;;;4725916;30;20114;-52
2023/12/12 06:40:12;;;;;;;26.73;5.45;;;7.40;99.90;;;;;;4727785;30;20076;-52
2023/12/12 06:42:49;;;;;;;16.27;5.25;;;7.40;99.90;;;;;;4726125;30;20056;-54
2023/12/12 06:45:16;;;;;;;20.65;4.50;;;7.40;99.90;;;;;;4725143;30;20061;-54
2023/12/12 06:47:43;;;;;;;22.55;5.18;;;7.40;99.90;;;;;;4726608;30;20044;-51
2023/12/12 06:50:11;;;;;;;15.40;4.18;;;7.50;99.90;;;;;;4726892;30;20122;-56
2023/12/12 06:52:38;;;;;;;21.13;5.15;;;7.50;99.90;;;;;;4728105;30;20065;-54
2023/12/12 06:55:05;;;;;;;17.98;5.00;;;7.50;99.90;;;;;;4725760;30;20048;-55
2023/12/12 06:57:32;;;;;;;18.48;5.10;;;7.60;99.90;;;;;;4726168;30;20049;-57
2023/12/12 07:00:00;;;;;;;17.45;4.75;;;7.60;99.90;;;;;;4729404;30;20053;-55
2023/12/12 07:02:27;;;;;;;19.95;5.20;;;7.60;99.90;;;;;;4713606;30;20762;-52
2023/12/12 07:04:54;;;;;;;20.23;6.40;;;7.60;99.90;;;;;;4734553;30;20053;-53
2023/12/12 07:07:29;;;;;;;16.80;4.97;;;7.60;99.90;;;;;;5070905;28;20749;-53
2023/12/12 07:09:56;;;;;;;17.23;5.90;;;7.60;99.90;;;;;;5054319;28;20133;-55
2023/12/12 07:12:26;;;;;;;21.42;5.90;;;7.70;99.90;;;;;;5033678;28;20095;-54
2023/12/12 07:14:54;;;;;;;18.88;4.57;;;7.70;99.90;;;;;;5037521;28;20155;-51
2023/12/12 07:17:21;;;;;;;22.80;7.00;;;7.70;99.90;;;;;;5034935;28;20057;-50
2023/12/12 07:19:49;;;;;;;22.33;5.45;;;7.70;99.90;;;;;;5036655;28;20079;-54
2023/12/12 07:22:16;;;;;;;25.10;5.28;;;7.80;99.90;;;;;;5032443;28;20533;-50
2023/12/12 07:24:43;;;;;;;22.85;5.50;;;7.80;99.90;;;;;;5034653;28;20118;-51
2023/12/12 07:27:10;;;;;;;23.98;7.35;;;7.80;99.90;;;;;;5035840;28;20050;-54
2023/12/12 07:29:38;;;;;;;24.90;7.28;;;7.80;99.90;;;;;;5031322;28;20395;-54
2023/12/12 07:32:06;;;;;;;14.68;4.88;;;7.80;99.90;;;;;;5031239;28;20038;-49
2023/12/12 07:34:33;;;;;;;25.55;5.35;;;7.90;99.90;;;;;;5034670;28;20067;-53
2023/12/12 07:37:00;;;;;;;20.02;4.90;;;7.80;99.90;;;;;;5039782;28;20052;-55
2023/12/12 07:39:28;;;;;;;17.77;5.47;;;7.90;99.90;;;;;;5036276;28;20063;-51
2023/12/12 07:41:55;;;;;;;15.38;5.07;;;7.90;99.90;;;;;;5024405;28;20450;-51
2023/12/12 07:44:23;;;;;;;16.17;4.15;;;7.90;99.90;;;;;;5031022;28;20585;-53
2023/12/12 07:46:50;;;;;;;18.58;5.05;;;7.90;99.90;;;;;;5033658;28;20037;-53
2023/12/12 07:49:17;;;;;;;20.08;5.63;;;7.80;99.90;;;;;;5054861;28;20046;-57
2023/12/12 07:51:45;;;;;;;16.15;5.18;;;7.80;99.90;;;;;;5029962;28;20068;-53
2023/12/12 07:54:12;;;;;;;24.40;5.75;;;7.80;99.90;;;;;;5031795;28;20053;-56
2023/12/12 07:56:39;;;;;;;28.58;6.38;;;7.70;99.90;;;;;;5033686;28;20689;-57
2023/12/12 07:59:06;;;;;;;20.55;5.45;;;7.80;99.90;;;;;;5035418;28;20115;-56
2023/12/12 08:01:36;;;;;;;32.17;10.80;;;7.80;99.90;;;;;;5029698;28;20434;-54
2023/12/12 08:04:06;;;;;;;24.20;9.88;;;7.80;99.90;;;;;;5030286;28;20049;-53
2023/12/12 08:06:34;;;;;;;18.25;5.82;;;8.00;99.90;;;;;;5032308;28;20128;-51
2023/12/12 08:09:02;;;;;;;17.17;4.70;;;8.10;99.90;;;;;;5030049;28;20587;-56
2023/12/12 08:11:29;;;;;;;16.95;5.90;;;8.10;99.90;;;;;;5029869;28;20053;-55
2023/12/12 08:13:56;;;;;;;18.10;5.55;;;8.20;99.90;;;;;;5034405;28;20155;-59
2023/12/12 08:16:24;;;;;;;19.27;5.57;;;8.20;99.90;;;;;;5032894;28;20109;-57
2023/12/12 08:18:51;;;;;;;14.85;5.25;;;8.30;99.90;;;;;;5016967;28;20056;-53
2023/12/12 08:21:20;;;;;;;20.67;5.30;;;8.30;99.90;;;;;;5010271;28;20084;-52
2023/12/12 08:23:48;;;;;;;26.98;6.07;;;8.30;99.90;;;;;;5014507;28;20142;-57
2023/12/12 08:26:16;;;;;;;18.92;5.38;;;8.30;99.90;;;;;;5021167;28;20505;-55
2023/12/12 08:28:43;;;;;;;22.00;4.75;;;8.30;99.90;;;;;;5015417;28;20041;-55
2023/12/12 08:31:10;;;;;;;15.43;4.78;;;8.40;99.90;;;;;;5019337;28;20058;-52
2023/12/12 08:33:38;;;;;;;19.02;5.15;;;8.40;99.90;;;;;;5013674;28;20113;-59
2023/12/12 08:36:06;;;;;;;24.52;5.20;;;8.40;99.90;;;;;;5015387;28;20041;-56
2023/12/12 08:38:33;;;;;;;21.63;5.35;;;8.50;99.90;;;;;;5003912;28;20503;-57
2023/12/12 08:41:00;;;;;;;17.48;5.90;;;8.50;99.90;;;;;;5009976;28;20336;-53
2023/12/12 08:43:27;;;;;;;18.20;5.00;;;8.60;99.90;;;;;;5014295;28;20053;-56
2023/12/12 08:45:56;;;;;;;17.25;4.55;;;8.70;99.90;;;;;;5016505;28;20041;-57
2023/12/12 08:48:23;;;;;;;15.23;5.65;;;8.80;99.90;;;;;;5019697;28;20107;-56
2023/12/12 08:50:51;;;;;;;15.85;4.72;;;8.80;99.90;;;;;;5014456;28;20588;-55
2023/12/12 08:53:18;;;;;;;20.08;5.13;;;8.70;99.90;;;;;;5015080;28;20065;-58
2023/12/12 08:55:45;;;;;;;20.65;4.82;;;8.60;99.90;;;;;;5016272;28;20042;-57
2023/12/12 08:58:12;;;;;;;18.02;5.15;;;8.60;99.90;;;;;;5018326;28;20061;-55
2023/12/12 09:00:40;;;;;;;17.75;5.18;;;8.60;99.90;;;;;;5017537;28;20072;-51
2023/12/12 09:03:07;;;;;;;25.75;5.57;;;8.70;99.90;;;;;;5008603;28;20084;-55
2023/12/12 09:05:36;;;;;;;22.23;6.40;;;8.60;99.90;;;;;;5016359;28;20045;-56
2023/12/12 09:08:03;;;;;;;20.25;5.88;;;8.60;99.90;;;;;;5011667;28;20053;-57
2023/12/12 09:10:31;;;;;;;15.40;6.13;;;8.70;99.90;;;;;;5015064;28;20100;-54
2023/12/12 09:12:58;;;;;;;18.45;5.28;;;8.80;99.90;;;;;;5018063;28;20072;-52
2023/12/12 09:15:25;;;;;;;13.82;4.40;;;8.70;99.90;;;;;;5017102;28;20586;-56
2023/12/12 09:17:52;;;;;;;17.02;4.50;;;8.60;99.90;;;;;;5009479;28;20049;-54
2023/12/12 09:20:39;;;;;;;22.63;10.85;;;8.50;99.90;;;;;;5012332;28;20104;-50
2023/12/12 09:23:06;;;;;;;17.92;4.45;;;8.60;99.90;;;;;;5021247;28;20065;-55
2023/12/12 09:25:34;;;;;;;12.90;5.53;;;8.50;99.90;;;;;;5004367;28;20077;-54
2023/12/12 09:28:01;;;;;;;17.27;5.47;;;8.50;99.90;;;;;;5016260;28;20053;-55
2023/12/12 09:30:29;;;;;;;17.55;4.60;;;8.60;99.90;;;;;;5014682;28;20065;-55
2023/12/12 09:32:56;;;;;;;15.18;4.57;;;8.70;99.90;;;;;;5011229;28;20041;-53
2023/12/12 09:35:24;;;;;;;14.48;5.15;;;8.60;99.90;;;;;;5016887;28;20049;-57
2023/12/12 09:37:51;;;;;;;15.43;5.00;;;8.80;99.90;;;;;;5012866;28;20049;-58
2023/12/12 09:40:18;;;;;;;18.35;5.07;;;8.80;99.90;;;;;;5013136;28;20049;-54
2023/12/12 09:42:49;;;;;;;17.20;4.68;;;9.00;99.90;;;;;;5007293;28;20057;-55
2023/12/12 09:45:16;;;;;;;15.95;5.30;;;9.20;99.90;;;;;;5017269;28;20054;-53
2023/12/12 09:47:45;;;;;;;13.40;4.72;;;9.20;99.90;;;;;;5014717;28;20052;-54
2023/12/12 09:50:13;;;;;;;16.73;4.50;;;9.40;99.90;;;;;;5007885;28;20037;-54
2023/12/12 09:52:42;;;;;;;11.10;4.55;;;9.60;99.90;;;;;;5035419;28;20045;-54
2023/12/12 09:55:10;;;;;;;13.95;4.65;;;9.70;99.90;;;;;;5012642;28;20116;-56
2023/12/12 09:57:37;;;;;;;15.27;4.60;;;9.70;99.90;;;;;;5016603;28;20053;-54
2023/12/12 10:00:08;;;;;;;13.50;5.05;;;9.70;99.90;;;;;;5018424;28;20038;-52
2023/12/12 10:02:36;;;;;;;15.00;4.43;;;9.70;99.90;;;;;;5012954;28;20261;-53
2023/12/12 10:05:04;;;;;;;14.68;3.88;;;9.70;99.90;;;;;;5008558;28;20077;-57
2023/12/12 10:07:33;;;;;;;12.18;4.03;;;9.70;99.90;;;;;;5007933;28;20542;-55
2023/12/12 10:10:05;;;;;;;10.05;3.25;;;9.60;99.90;;;;;;5016273;28;20038;-53
2023/12/12 10:12:33;;;;;;;13.93;4.00;;;9.60;99.90;;;;;;5016018;28;20050;-53
2023/12/12 10:15:00;;;;;;;14.27;4.18;;;9.50;99.90;;;;;;5012388;28;20050;-57
2023/12/12 10:17:37;;;;;;;11.75;4.30;;;9.40;99.90;;;;;;5011188;28;20050;-53
2023/12/12 10:20:05;;;;;;;15.60;4.07;;;9.40;99.90;;;;;;5017812;28;20407;-57
2023/12/12 10:22:33;;;;;;;12.05;4.20;;;9.30;99.90;;;;;;5011037;28;20132;-55
2023/12/12 10:25:13;;;;;;;11.82;4.00;;;9.30;99.90;;;;;;5013102;28;20046;-57
2023/12/12 10:27:44;;;;;;;17.23;4.32;;;9.20;99.90;;;;;;5006052;28;20056;-55
2023/12/12 10:30:14;;;;;;;11.63;3.58;;;9.30;99.90;;;;;;5015330;28;20049;-53
2023/12/12 10:32:43;;;;;;;13.30;3.95;;;9.20;99.90;;;;;;4995081;28;20046;-54
2023/12/12 10:35:10;;;;;;;18.00;7.95;;;9.10;99.90;;;;;;5001787;28;20053;-52
2023/12/12 10:37:37;;;;;;;11.20;4.47;;;9.00;99.90;;;;;;5013165;28;20471;-48
2023/12/12 10:40:15;;;;;;;12.43;4.10;;;9.00;99.90;;;;;;5009780;28;20154;-56
2023/12/12 10:42:43;;;;;;;10.68;4.10;;;9.10;99.90;;;;;;5006730;28;20049;-53
2023/12/12 10:45:15;;;;;;;9.98;3.60;;;9.10;99.90;;;;;;5012280;28;20068;-53
2023/12/12 10:47:47;;;;;;;8.98;3.83;;;9.10;99.90;;;;;;5008298;28;20045;-52
2023/12/12 10:50:16;;;;;;;11.35;4.63;;;9.10;99.90;;;;;;5018343;28;20052;-53
2023/12/12 10:52:46;;;;;;;10.15;4.57;;;9.10;99.90;;;;;;5006967;28;20398;-51
2023/12/12 10:55:14;;;;;;;17.88;4.70;;;9.20;99.90;;;;;;5006345;28;20041;-52
2023/12/12 10:57:44;;;;;;;12.20;5.28;;;9.20;99.90;;;;;;5007227;28;20050;-52
2023/12/12 11:00:13;;;;;;;16.10;6.78;;;9.30;99.90;;;;;;5019352;28;20042;-55
2023/12/12 11:02:46;;;;;;;13.40;4.93;;;9.30;99.90;;;;;;5009909;28;20596;-56
2023/12/12 11:05:15;;;;;;;13.90;5.07;;;9.40;99.90;;;;;;5010836;28;20053;-56
2023/12/12 11:07:46;;;;;;;11.05;4.43;;;9.40;99.90;;;;;;5017019;28;20041;-56
2023/12/12 11:10:19;;;;;;;12.55;4.68;;;9.30;99.90;;;;;;5014381;28;20116;-52
2023/12/12 11:12:55;;;;;;;11.00;4.70;;;9.40;99.90;;;;;;5016144;28;20115;-56
2023/12/12 11:15:25;;;;;;;11.05;4.15;;;9.40;99.90;;;;;;5006962;28;20046;-55
2023/12/12 11:17:52;;;;;;;14.15;4.30;;;9.40;99.90;;;;;;5009757;28;20054;-57
2023/12/12 11:20:20;;;;;;;23.27;13.32;;;9.50;99.90;;;;;;5015426;28;20129;-59
2023/12/12 11:22:50;;;;;;;12.45;5.20;;;9.60;99.90;;;;;;5012965;28;20057;-53
2023/12/12 11:25:19;;;;;;;13.15;4.88;;;9.50;99.90;;;;;;5012547;28;20518;-54
2023/12/12 11:27:53;;;;;;;14.10;5.53;;;9.50;99.90;;;;;;5011909;28;20096;-58
2023/12/12 11:30:28;;;;;;;9.55;4.35;;;9.60;99.90;;;;;;5014600;28;20046;-52
2023/12/12 11:32:56;;;;;;;11.73;4.15;;;9.70;99.90;;;;;;5013156;28;20049;-57
2023/12/12 11:35:31;;;;;;;9.52;4.40;;;9.70;99.90;;;;;;5020789;28;20354;-54
2023/12/12 11:38:04;;;;;;;9.27;4.55;;;9.60;99.90;;;;;;5012939;28;20100;-54
2023/12/12 11:40:33;;;;;;;9.15;4.30;;;9.60;99.90;;;;;;5018570;28;20079;-54
2023/12/12 11:43:21;;;;;;;10.95;4.32;;;9.40;99.90;;;;;;5016998;28;20156;-56
2023/12/12 11:45:49;;;;;;;9.90;4.72;;;9.40;99.90;;;;;;5012078;28;20096;-57
2023/12/12 11:48:18;;;;;;;9.52;4.50;;;9.30;99.90;;;;;;5015889;28;20034;-53
2023/12/12 11:50:45;;;;;;;14.55;7.50;;;9.40;99.90;;;;;;5005115;28;20073;-57
2023/12/12 11:53:40;;;;;;;8.82;4.28;;;9.40;99.90;;;;;;5016854;28;20562;-50
2023/12/12 11:56:07;;;;;;;11.68;4.50;;;9.50;99.90;;;;;;5010467;28;20148;-51
2023/12/12 11:58:35;;;;;;;11.48;4.88;;;9.40;99.90;;;;;;5018942;28;20126;-58
2023/12/12 12:01:03;;;;;;;10.85;5.07;;;9.40;99.90;;;;;;5019479;28;20048;-50
2023/12/12 12:03:30;;;;;;;13.95;5.13;;;9.40;99.90;;;;;;5019320;28;20455;-51
2023/12/12 12:05:58;;;;;;;9.80;4.70;;;9.40;99.90;;;;;;5009940;28;20049;-57
2023/12/12 12:08:26;;;;;;;11.75;5.50;;;9.40;99.90;;;;;;5016020;28;20405;-57
2023/12/12 12:10:57;;;;;;;13.02;6.03;;;9.40;99.90;;;;;;5017840;28;20046;-58
2023/12/12 12:13:39;;;;;;;13.93;5.82;;;9.40;99.90;;;;;;5018609;28;20125;-55
2023/12/12 12:16:08;;;;;;;10.95;5.68;;;9.40;99.90;;;;;;5012429;28;20486;-52
2023/12/12 12:18:36;;;;;;;11.57;6.07;;;9.40;99.90;;;;;;5013844;28;20041;-57
2023/12/12 12:21:04;;;;;;;13.45;6.22;;;9.40;99.90;;;;;;5009340;28;20071;-57
2023/12/12 12:23:37;;;;;;;12.55;5.93;;;9.40;99.90;;;;;;5012864;28;20065;-55
2023/12/12 12:26:04;;;;;;;12.45;6.30;;;9.40;99.90;;;;;;5016299;28;20060;-54
2023/12/12 12:28:35;;;;;;;12.45;6.47;;;9.30;99.90;;;;;;5017008;28;20041;-56
2023/12/12 12:31:04;;;;;;;10.57;5.53;;;9.40;99.90;;;;;;5015771;28;20049;-55
2023/12/12 12:33:34;;;;;;;11.38;5.45;;;9.40;99.90;;;;;;5019208;28;20045;-56
2023/12/12 12:36:02;;;;;;;11.80;5.15;;;9.40;99.90;;;;;;5013767;28;20042;-55
2023/12/12 12:38:31;;;;;;;10.85;5.45;;;9.40;99.90;;;;;;5007657;28;20041;-52
2023/12/12 12:40:59;;;;;;;9.85;5.28;;;9.50;99.90;;;;;;5000056;28;20544;-50
2023/12/12 12:43:26;;;;;;;13.13;5.32;;;9.50;99.90;;;;;;5024650;28;20119;-57
2023/12/12 12:45:53;;;;;;;8.55;4.78;;;9.50;99.90;;;;;;5013781;28;20061;-53
2023/12/12 12:48:21;;;;;;;8.98;5.47;;;9.60;99.90;;;;;;5017312;28;20044;-56
2023/12/12 12:50:49;;;;;;;11.75;6.18;;;9.60;99.90;;;;;;5016081;28;20064;-52
2023/12/12 12:53:17;;;;;;;10.50;5.95;;;9.60;99.90;;;;;;5016537;28;20494;-52